createdAt,value
2023-02-14T00:01:11.692Z,43.54
2023-02-14T00:06:14.332Z,43.57
2023-02-14T00:11:16.257Z,43.55
2023-02-14T00:16:18.139Z,43.82
2023-02-14T00:21:20.355Z,43.63
2023-02-14T00:26:22.139Z,43.74
2023-02-14T00:31:24.325Z,43.57
2023-02-14T00:36:26.728Z,43.52
2023-02-14T00:41:28.514Z,43.51
2023-02-14T00:46:30.443Z,43.45
2023-02-14T00:51:32.803Z,43.57
2023-02-14T00:56:34.617Z,43.54
2023-02-14T01:01:36.446Z,43.41
2023-02-14T01:06:38.328Z,43.33
2023-02-14T01:11:40.511Z,43.24
2023-02-14T01:16:42.562Z,43.25
2023-02-14T01:21:44.533Z,43.48
2023-02-14T01:26:46.641Z,43.12
2023-02-14T01:31:49.582Z,43.47
2023-02-14T01:36:51.398Z,43.01
2023-02-14T01:41:56.012Z,43.29
2023-02-14T01:47:01.042Z,43.17
2023-02-14T01:52:08.616Z,43.40
2023-02-14T01:57:15.136Z,43.10
2023-02-14T02:02:23.983Z,43.32
2023-02-14T02:07:27.787Z,43.21
2023-02-14T02:12:31.032Z,43.19
2023-02-14T02:18:03.676Z,43.45
2023-02-14T02:23:20.364Z,43.38
2023-02-14T02:28:59.787Z,43.18
2023-02-14T02:34:21.621Z,43.17
2023-02-14T02:39:53.875Z,43.28
2023-02-14T02:45:06.810Z,43.13
2023-02-14T02:50:42.602Z,43.39
2023-02-14T02:56:22.384Z,43.23
2023-02-14T03:01:29.807Z,43.05
2023-02-14T03:06:33.066Z,43.02
2023-02-14T03:11:36.662Z,43.07
2023-02-14T03:16:44.745Z,43.26
2023-02-14T03:22:00.839Z,43.19
2023-02-14T03:27:14.690Z,43.18
2023-02-14T03:33:06.968Z,43.35
2023-02-14T03:38:22.304Z,43.36
2023-02-14T03:43:35.694Z,42.99
2023-02-14T03:48:40.345Z,43.01
2023-02-14T03:53:46.287Z,43.13
2023-02-14T03:58:51.551Z,43.09
2023-02-14T04:03:55.776Z,42.94
2023-02-14T04:08:57.791Z,42.97
2023-02-14T04:14:00.152Z,43.25
2023-02-14T04:19:20.888Z,43.16
2023-02-14T04:24:23.011Z,42.98
2023-02-14T04:29:24.918Z,43.16
2023-02-14T04:34:26.810Z,43.00
2023-02-14T04:39:28.812Z,43.19
2023-02-14T04:44:30.834Z,43.14
2023-02-14T04:49:32.825Z,43.20
2023-02-14T04:54:34.623Z,42.87
2023-02-14T04:59:36.385Z,42.90
2023-02-14T05:04:38.448Z,42.92
2023-02-14T05:09:40.398Z,43.18
2023-02-14T05:14:42.292Z,42.82
2023-02-14T05:19:44.566Z,42.82
2023-02-14T05:24:46.524Z,43.08
2023-02-14T05:29:48.299Z,43.16
2023-02-14T05:34:50.088Z,43.04
2023-02-14T05:39:51.971Z,42.91
2023-02-14T05:44:53.795Z,42.89
2023-02-14T05:49:55.814Z,43.02
2023-02-14T05:54:57.855Z,42.71
2023-02-14T05:59:59.956Z,42.74
2023-02-14T06:05:01.910Z,42.85
2023-02-14T06:10:03.946Z,42.77
2023-02-14T06:15:06.466Z,42.90
2023-02-14T06:20:12.074Z,42.74
2023-02-14T06:25:14.285Z,42.86
2023-02-14T06:30:17.448Z,42.53
2023-02-14T06:35:19.530Z,42.78
2023-02-14T06:40:22.095Z,42.77
2023-02-14T06:45:24.139Z,42.68
2023-02-14T06:50:26.215Z,42.46
2023-02-14T06:55:28.227Z,42.83
2023-02-14T07:00:30.739Z,41.28
2023-02-14T07:05:33.270Z,44.44
2023-02-14T07:10:35.565Z,42.44
2023-02-14T07:15:37.484Z,41.81
2023-02-14T07:20:39.550Z,40.75
2023-02-14T07:25:41.350Z,41.86
2023-02-14T07:30:43.374Z,41.40
2023-02-14T07:35:45.261Z,41.43
2023-02-14T07:40:47.191Z,41.37
2023-02-14T07:45:49.003Z,41.33
2023-02-14T07:50:50.945Z,41.22
2023-02-14T07:55:52.984Z,40.80
2023-02-14T08:00:55.114Z,40.16
2023-02-14T08:05:59.774Z,40.28
2023-02-14T08:11:02.129Z,40.07
2023-02-14T08:16:13.001Z,40.17
2023-02-14T08:21:17.831Z,39.85
2023-02-14T08:26:20.274Z,39.77
2023-02-14T08:31:35.087Z,40.10
2023-02-14T08:36:37.845Z,40.25
2023-02-14T08:41:39.886Z,40.09
2023-02-14T08:46:41.976Z,39.31
2023-02-14T08:51:44.059Z,39.67
2023-02-14T08:56:46.240Z,39.39
2023-02-14T09:01:48.078Z,39.25
2023-02-14T09:06:49.916Z,39.32
2023-02-14T09:11:51.931Z,39.41
2023-02-14T09:16:53.910Z,39.30
2023-02-14T09:21:55.754Z,39.09
2023-02-14T09:26:58.224Z,39.45
2023-02-14T09:32:02.164Z,39.75
2023-02-14T09:37:22.730Z,39.73
2023-02-14T09:42:50.716Z,39.78
2023-02-14T09:48:15.457Z,39.94
2023-02-14T09:53:27.900Z,39.74
2023-02-14T09:58:40.168Z,40.00
2023-02-14T10:04:03.373Z,40.10
2023-02-14T10:09:36.495Z,40.13
2023-02-14T10:14:41.244Z,40.06
2023-02-14T10:20:06.250Z,40.11
2023-02-14T10:25:39.772Z,40.24
2023-02-14T10:30:51.613Z,40.16
2023-02-14T10:36:39.210Z,40.06
2023-02-14T10:42:02.792Z,40.09
2023-02-14T10:47:04.663Z,40.17
2023-02-14T10:52:25.589Z,40.17
2023-02-14T10:57:41.183Z,40.58
2023-02-14T11:02:50.547Z,40.42
2023-02-14T11:07:52.991Z,40.23
2023-02-14T11:12:55.137Z,40.34
2023-02-14T11:18:18.127Z,40.49
2023-02-14T11:23:21.604Z,40.42
2023-02-14T11:28:24.058Z,40.23
2023-02-14T11:33:52.199Z,40.72
2023-02-14T11:39:08.472Z,40.49
2023-02-14T11:44:19.380Z,40.45
2023-02-14T11:49:30.620Z,40.80
2023-02-14T11:54:39.506Z,40.84
2023-02-14T11:59:47.151Z,40.55
2023-02-14T12:04:53.232Z,40.67
2023-02-14T12:10:13.606Z,40.82
2023-02-14T12:15:37.999Z,40.68
2023-02-14T12:21:26.386Z,40.57
2023-02-14T12:26:33.668Z,40.86
2023-02-14T12:31:36.200Z,40.65
2023-02-14T12:37:05.277Z,40.66
2023-02-14T12:42:13.739Z,40.70
2023-02-14T12:47:18.488Z,40.75
2023-02-14T12:52:39.626Z,40.99
2023-02-14T12:57:47.241Z,41.04
2023-02-14T13:03:07.125Z,40.63
2023-02-14T13:08:47.241Z,41.02
2023-02-14T13:14:19.558Z,40.88
2023-02-14T13:19:39.948Z,41.04
2023-02-14T13:24:44.928Z,40.82
2023-02-14T13:29:54.829Z,40.75
2023-02-14T13:34:58.927Z,40.97
2023-02-14T13:40:06.577Z,40.75
2023-02-14T13:45:40.642Z,40.99
2023-02-14T13:51:06.548Z,40.98
2023-02-14T13:56:17.306Z,40.75
2023-02-14T14:02:17.439Z,41.10
2023-02-14T14:07:30.677Z,40.83
2023-02-14T14:12:35.330Z,41.16
2023-02-14T14:17:39.585Z,40.96
2023-02-14T14:22:50.578Z,41.04
2023-02-14T14:27:53.887Z,40.60
2023-02-14T14:32:55.889Z,40.93
2023-02-14T14:38:01.602Z,40.93
2023-02-14T14:43:14.304Z,40.88
2023-02-14T14:48:47.090Z,41.08
2023-02-14T14:53:52.934Z,40.69
2023-02-14T14:58:55.158Z,40.93
2023-02-14T15:04:12.065Z,40.71
2023-02-14T15:09:22.368Z,40.94
2023-02-14T15:14:27.419Z,40.60
2023-02-14T15:19:41.549Z,40.96
2023-02-14T15:24:44.145Z,40.75
2023-02-14T15:30:04.085Z,41.03
2023-02-14T15:35:07.531Z,40.68
2023-02-14T15:40:18.061Z,40.76
2023-02-14T15:45:24.399Z,41.02
2023-02-14T15:50:32.827Z,41.02
2023-02-14T15:55:36.289Z,41.09
2023-02-14T16:00:38.503Z,41.02
2023-02-14T16:05:47.294Z,40.85
2023-02-14T16:11:10.078Z,41.30
2023-02-14T16:16:14.279Z,41.18
2023-02-14T16:21:33.496Z,41.09
2023-02-14T16:26:38.359Z,41.12
2023-02-14T16:32:01.208Z,42.41
2023-02-14T16:37:09.758Z,41.08
2023-02-14T16:42:18.973Z,41.34
2023-02-14T16:47:21.344Z,41.60
2023-02-14T16:52:26.954Z,41.50
2023-02-14T16:57:33.967Z,41.92
2023-02-14T17:02:36.218Z,41.83
2023-02-14T17:07:39.313Z,41.93
2023-02-14T17:12:45.295Z,42.09
2023-02-14T17:17:49.751Z,41.70
2023-02-14T17:22:52.560Z,42.18
2023-02-14T17:27:56.408Z,42.70
2023-02-14T17:32:58.911Z,43.46
2023-02-14T17:38:00.817Z,44.76
2023-02-14T17:43:02.921Z,44.90
2023-02-14T17:48:05.066Z,44.80
2023-02-14T17:53:07.154Z,44.83
2023-02-14T17:58:09.148Z,44.95
2023-02-14T18:03:11.174Z,45.72
2023-02-14T18:08:13.043Z,45.15
2023-02-14T18:13:15.170Z,45.55
2023-02-14T18:18:17.220Z,43.99
2023-02-14T18:23:19.226Z,43.34
2023-02-14T18:28:21.563Z,43.22
2023-02-14T18:33:25.453Z,42.96
2023-02-14T18:38:27.497Z,43.15
2023-02-14T18:43:29.418Z,42.75
2023-02-14T18:48:32.497Z,42.59
2023-02-14T18:53:35.518Z,42.46
2023-02-14T18:58:37.473Z,42.88
2023-02-14T19:03:40.587Z,42.37
2023-02-14T19:08:43.081Z,42.48
2023-02-14T19:13:46.338Z,42.70
2023-02-14T19:18:50.095Z,42.86
2023-02-14T19:23:56.568Z,44.78
2023-02-14T19:29:00.586Z,45.08
2023-02-14T19:34:03.350Z,44.59
2023-02-14T19:39:05.825Z,44.35
2023-02-14T19:44:09.728Z,42.95
2023-02-14T19:49:14.827Z,43.05
2023-02-14T19:54:17.116Z,43.14
2023-02-14T19:59:23.028Z,42.80
2023-02-14T20:04:27.938Z,42.78
2023-02-14T20:09:30.133Z,42.68
2023-02-14T20:14:47.104Z,42.56
2023-02-14T20:19:53.073Z,42.64
2023-02-14T20:24:55.268Z,42.52
2023-02-14T20:29:57.357Z,42.52
2023-02-14T20:34:59.371Z,42.37
2023-02-14T20:40:01.283Z,42.21
2023-02-14T20:45:03.087Z,42.01
2023-02-14T20:50:05.673Z,42.21
2023-02-14T20:55:07.706Z,41.87
2023-02-14T21:00:10.895Z,41.88
2023-02-14T21:05:18.809Z,41.93
2023-02-14T21:10:20.999Z,41.68
2023-02-14T21:15:22.868Z,41.93
2023-02-14T21:20:24.871Z,41.77
2023-02-14T21:25:27.142Z,41.73
2023-02-14T21:30:33.127Z,41.64
2023-02-14T21:35:36.741Z,44.97
2023-02-14T21:40:38.950Z,44.61
2023-02-14T21:45:53.711Z,46.98
2023-02-14T21:50:55.702Z,44.92
2023-02-14T21:56:07.005Z,43.97
2023-02-14T22:01:15.237Z,44.20
2023-02-14T22:06:17.538Z,43.06
2023-02-14T22:11:19.482Z,43.58
2023-02-14T22:16:22.846Z,43.25
2023-02-14T22:21:26.947Z,43.45
2023-02-14T22:26:31.417Z,43.43
2023-02-14T22:31:36.546Z,43.29
2023-02-14T22:36:38.440Z,42.88
2023-02-14T22:41:40.349Z,42.87
2023-02-14T22:46:42.276Z,43.04
2023-02-14T22:51:44.590Z,42.88
2023-02-14T22:56:48.876Z,42.78
2023-02-14T23:01:52.387Z,42.82
2023-02-14T23:06:54.383Z,42.67
2023-02-14T23:11:56.353Z,42.58
2023-02-14T23:17:17.088Z,42.56
2023-02-14T23:22:20.824Z,42.54
2023-02-14T23:27:25.580Z,42.41
2023-02-14T23:32:28.075Z,42.56
2023-02-14T23:37:29.902Z,42.71
2023-02-14T23:42:31.692Z,42.54
2023-02-14T23:47:34.520Z,42.34
2023-02-14T23:52:38.553Z,42.62
2023-02-14T23:57:40.798Z,42.58
